Time;durP1;ratioP1;P1;durP2;ratioP2;P2;SDS_P1;SDS_P2;PMS_P1;PMS_P2;Temp;Humidity;BMP_temperature;BMP_pressure;BME280_temperature;BME280_humidity;BME280_pressure;Samples;Min_cycle;Max_cycle;Signal;HPM_P1;HPM_P2
2023/04/05 00:00:57;;;;;;;;;;;2.00;69.50;;;;;;4991342;28;19926;-79
2023/04/05 00:03:23;;;;;;;;;;;2.00;69.50;;;;;;4962739;28;20625;-82
2023/04/05 00:05:48;;;;;;;;;;;2.00;69.50;;;;;;4978154;28;19922;-80
2023/04/05 00:08:22;;;;;;;;;;;2.00;69.60;;;;;;4968238;28;20303;-80
2023/04/05 00:10:48;;;;;;;;;;;2.00;69.60;;;;;;4969902;28;20048;-81
2023/04/05 00:13:13;;;;;;;;;;;2.00;69.60;;;;;;4968597;28;20017;-78
2023/04/05 00:15:39;;;;;;;;;;;1.90;69.60;;;;;;4962505;28;19922;-80
2023/04/05 00:18:05;;;;;;;;;;;1.90;69.60;;;;;;4969270;28;19922;-79
2023/04/05 00:20:30;;;;;;;;;;;1.90;69.60;;;;;;4945951;28;19930;-82
2023/04/05 00:22:56;;;;;;;;;;;1.90;69.60;;;;;;4959883;28;19922;-82
2023/04/05 00:25:22;;;;;;;;;;;1.90;69.60;;;;;;4949177;28;19976;-81
2023/04/05 00:27:47;;;;;;;;;;;1.80;69.60;;;;;;4979461;28;20566;-80
2023/04/05 00:30:19;;;;;;;;;;;1.80;69.60;;;;;;4961936;28;19933;-81
2023/04/05 00:32:48;;;;;;;;;;;1.80;69.70;;;;;;4959883;28;19922;-80
2023/04/05 00:35:14;;;;;;;;;;;1.80;69.70;;;;;;4949818;28;19966;-81
2023/04/05 00:37:39;;;;;;;;;;;1.80;69.70;;;;;;4961200;28;19937;-80
2023/04/05 00:40:06;;;;;;;;;;;1.70;69.70;;;;;;4972578;28;19934;-82
2023/04/05 00:42:31;;;;;;;;;;;1.70;69.70;;;;;;4956745;28;19926;-82
2023/04/05 00:44:56;;;;;;;;;;;1.70;69.70;;;;;;4976130;28;19968;-81
2023/04/05 00:47:22;;;;;;;;;;;1.60;69.70;;;;;;4969787;28;19933;-81
2023/04/05 00:49:47;;;;;;;;;;;1.60;69.70;;;;;;4964979;28;19973;-81
2023/04/05 00:52:14;;;;;;;;;;;1.60;69.80;;;;;;4957766;28;19925;-81
2023/04/05 00:54:40;;;;;;;;;;;1.60;69.80;;;;;;4954562;28;19922;-82
2023/04/05 00:57:06;;;;;;;;;;;1.60;69.80;;;;;;4964892;28;19926;-82
2023/04/05 00:59:31;;;;;;;;;;;1.50;69.80;;;;;;4963892;28;20017;-82
2023/04/05 01:02:03;;;;;;;;;;;1.50;69.80;;;;;;4950236;28;20013;-79
2023/04/05 01:04:29;;;;;;;;;;;1.50;69.80;;;;;;4963009;28;19922;-79
2023/04/05 01:06:54;;;;;;;;;;;1.50;69.90;;;;;;4983699;28;20021;-80
2023/04/05 01:09:23;;;;;;;;;;;1.40;69.90;;;;;;4982107;28;20654;-81
2023/04/05 01:11:48;;;;;;;;;;;1.40;69.90;;;;;;4982557;28;20467;-81
2023/04/05 01:14:14;;;;;;;;;;;1.40;69.90;;;;;;4979452;28;19929;-79
2023/04/05 01:16:39;;;;;;;;;;;1.30;69.80;;;;;;4976673;28;19929;-80
2023/04/05 01:19:05;;;;;;;;;;;1.30;70.00;;;;;;4978634;28;20337;-80
2023/04/05 01:21:38;;;;;;;;;;;1.30;70.00;;;;;;4992107;28;20657;-81
2023/04/05 01:24:13;;;;;;;;;;;1.30;70.00;;;;;;4979160;28;19929;-78
2023/04/05 01:26:39;;;;;;;;;;;1.30;70.00;;;;;;4960473;28;20242;-79
2023/04/05 01:29:24;;;;;;;;;;;1.20;70.00;;;;;;4960306;28;19926;-81
2023/04/05 01:31:52;;;;;;;;;;;1.20;70.00;;;;;;4947669;28;19922;-78
2023/04/05 01:34:37;;;;;;;;;;;1.10;70.10;;;;;;4960456;28;19922;-80
2023/04/05 01:37:05;;;;;;;;;;;1.10;70.00;;;;;;4959002;28;20359;-81
2023/04/05 01:39:30;;;;;;;;;;;1.10;70.10;;;;;;4936806;28;20556;-79
2023/04/05 01:42:00;;;;;;;;;;;1.10;70.10;;;;;;4962080;28;19953;-79
2023/04/05 01:44:25;;;;;;;;;;;1.00;70.10;;;;;;4961591;28;19918;-81
2023/04/05 01:46:51;;;;;;;;;;;1.00;70.10;;;;;;4969649;28;19997;-81
2023/04/05 01:49:16;;;;;;;;;;;0.90;70.10;;;;;;4942506;28;19922;-80
2023/04/05 01:51:41;;;;;;;;;;;0.90;70.10;;;;;;4957698;28;19918;-81
2023/04/05 01:54:07;;;;;;;;;;;0.90;70.10;;;;;;4960485;28;20017;-80
2023/04/05 01:56:33;;;;;;;;;;;0.90;70.20;;;;;;4953279;28;21003;-78
2023/04/05 01:58:58;;;;;;;;;;;0.90;70.20;;;;;;4958800;28;19965;-79
2023/04/05 02:01:24;;;;;;;;;;;0.80;70.20;;;;;;4978080;28;19933;-82
2023/04/05 02:03:49;;;;;;;;;;;0.80;70.20;;;;;;4976722;28;19983;-81
2023/04/05 02:06:15;;;;;;;;;;;0.80;70.30;;;;;;4976390;28;19921;-79
2023/04/05 02:08:40;;;;;;;;;;;0.80;70.30;;;;;;4972038;28;20606;-80
2023/04/05 02:11:06;;;;;;;;;;;0.70;70.30;;;;;;4965135;28;19927;-79
2023/04/05 02:13:31;;;;;;;;;;;0.70;70.30;;;;;;4953209;28;19922;-81
2023/04/05 02:15:57;;;;;;;;;;;0.70;70.30;;;;;;4958585;28;19922;-80
2023/04/05 02:18:29;;;;;;;;;;;0.60;70.30;;;;;;4955155;28;19926;-80
2023/04/05 02:21:00;;;;;;;;;;;0.60;70.30;;;;;;4959263;28;19930;-81
2023/04/05 02:23:26;;;;;;;;;;;0.60;70.40;;;;;;4965342;28;20494;-81
2023/04/05 02:25:52;;;;;;;;;;;0.60;70.40;;;;;;4968473;28;19965;-79
2023/04/05 02:28:18;;;;;;;;;;;0.50;70.40;;;;;;4950507;28;20317;-79
2023/04/05 02:30:43;;;;;;;;;;;0.50;70.40;;;;;;4956093;28;20419;-81
2023/04/05 02:33:09;;;;;;;;;;;0.50;70.50;;;;;;4971509;28;19977;-80
2023/04/05 02:35:35;;;;;;;;;;;0.50;70.50;;;;;;4958448;28;19918;-80
2023/04/05 02:38:01;;;;;;;;;;;0.40;70.40;;;;;;4957058;28;19937;-79
2023/04/05 02:40:26;;;;;;;;;;;0.40;70.50;;;;;;4975555;28;19949;-80
2023/04/05 02:42:52;;;;;;;;;;;0.40;70.50;;;;;;4946514;28;19926;-81
2023/04/05 02:45:18;;;;;;;;;;;0.40;70.50;;;;;;4972427;28;20436;-82
2023/04/05 02:47:43;;;;;;;;;;;0.40;70.60;;;;;;4945567;28;19949;-81
2023/04/05 02:50:09;;;;;;;;;;;0.30;70.60;;;;;;4957382;28;19922;-78
2023/04/05 02:52:36;;;;;;;;;;;0.30;70.60;;;;;;4943745;28;19922;-79
2023/04/05 02:55:03;;;;;;;;;;;0.30;70.60;;;;;;4960468;28;19968;-80
2023/04/05 02:57:28;;;;;;;;;;;0.20;70.50;;;;;;4961570;28;19930;-80
2023/04/05 02:59:54;;;;;;;;;;;0.20;70.60;;;;;;4954255;28;19976;-80
2023/04/05 03:02:19;;;;;;;;;;;0.20;70.70;;;;;;4955833;28;19922;-80
2023/04/05 03:04:45;;;;;;;;;;;0.10;70.60;;;;;;4966031;28;19929;-78
2023/04/05 03:07:13;;;;;;;;;;;0.10;70.70;;;;;;4953252;28;20672;-78
2023/04/05 03:09:38;;;;;;;;;;;0.10;70.80;;;;;;4947791;28;19926;-78
2023/04/05 03:12:04;;;;;;;;;;;0.10;70.80;;;;;;4955528;28;19928;-77
2023/04/05 03:14:30;;;;;;;;;;;0.10;70.80;;;;;;4939189;28;20616;-81
2023/04/05 03:16:56;;;;;;;;;;;0.00;70.70;;;;;;4955686;28;20286;-80
2023/04/05 03:19:22;;;;;;;;;;;0.00;70.70;;;;;;4943370;28;19922;-81
2023/04/05 03:21:48;;;;;;;;;;;0.00;70.80;;;;;;4954341;28;19923;-80
2023/04/05 03:24:14;;;;;;;;;;;-0.10;70.70;;;;;;4974135;28;19919;-82
2023/04/05 03:26:42;;;;;;;;;;;-0.10;70.70;;;;;;4958567;28;19926;-81
2023/04/05 03:29:07;;;;;;;;;;;-0.10;70.80;;;;;;4960288;28;19933;-82
2023/04/05 03:31:33;;;;;;;;;;;-0.10;70.80;;;;;;4980784;28;20738;-82
2023/04/05 03:33:58;;;;;;;;;;;-0.20;70.80;;;;;;4958670;28;19930;-81
2023/04/05 03:36:23;;;;;;;;;;;-0.20;70.80;;;;;;4961117;28;20026;-80
2023/04/05 03:38:50;;;;;;;;;;;-0.20;70.90;;;;;;4954513;28;20348;-82
2023/04/05 03:41:16;;;;;;;;;;;-0.20;70.90;;;;;;4946352;28;19926;-80
2023/04/05 03:43:41;;;;;;;;;;;-0.20;70.90;;;;;;4962964;28;19926;-82
2023/04/05 03:46:07;;;;;;;;;;;-0.30;70.90;;;;;;4960882;28;19931;-81
2023/04/05 03:48:32;;;;;;;;;;;-0.30;70.90;;;;;;4958305;28;19922;-81
2023/04/05 03:50:57;;;;;;;;;;;-0.30;71.00;;;;;;4966375;28;20370;-81
2023/04/05 03:53:23;;;;;;;;;;;-0.30;71.00;;;;;;4958568;28;19934;-81
2023/04/05 03:55:49;;;;;;;;;;;-0.30;71.00;;;;;;4947895;28;19922;-81
2023/04/05 03:58:15;;;;;;;;;;;-0.40;71.00;;;;;;4946340;28;19927;-80
2023/04/05 04:00:41;;;;;;;;;;;-0.40;71.00;;;;;;4947726;28;19977;-81
2023/04/05 04:03:06;;;;;;;;;;;-0.40;71.10;;;;;;4981103;28;19929;-82
2023/04/05 04:05:37;;;;;;;;;;;-0.40;71.10;;;;;;4962526;28;19996;-80
2023/04/05 04:08:06;;;;;;;;;;;-0.40;71.10;;;;;;4961306;28;19922;-82
2023/04/05 04:10:31;;;;;;;;;;;-0.50;71.10;;;;;;4964881;28;19949;-82
2023/04/05 04:12:57;;;;;;;;;;;-0.50;71.10;;;;;;4965486;28;19929;-81
2023/04/05 04:15:22;;;;;;;;;;;-0.50;71.20;;;;;;4964610;28;20006;-82
2023/04/05 04:17:47;;;;;;;;;;;-0.50;71.10;;;;;;4964833;28;20014;-81
2023/04/05 04:20:13;;;;;;;;;;;-0.50;71.20;;;;;;4964096;28;19926;-83
2023/04/05 04:22:39;;;;;;;;;;;-0.60;71.10;;;;;;4964908;28;19929;-82
2023/04/05 04:25:08;;;;;;;;;;;-0.60;71.20;;;;;;4967738;28;19949;-81
2023/04/05 04:27:34;;;;;;;;;;;-0.60;71.20;;;;;;4961786;28;19926;-80
2023/04/05 04:30:03;;;;;;;;;;;-0.60;71.20;;;;;;4963898;28;19949;-82
2023/04/05 04:32:46;;;;;;;;;;;-0.70;71.20;;;;;;4963715;28;20002;-80
2023/04/05 04:35:14;;;;;;;;;;;-0.70;71.20;;;;;;4974568;28;19972;-82
2023/04/05 04:37:46;;;;;;;;;;;-0.70;71.20;;;;;;4977976;28;19981;-80
2023/04/05 04:40:17;;;;;;;;;;;-0.70;71.20;;;;;;4980424;28;19937;-81
2023/04/05 04:42:45;;;;;;;;;;;-0.70;71.30;;;;;;4964030;28;19922;-82
2023/04/05 04:45:16;;;;;;;;;;;-0.70;71.30;;;;;;4994246;28;19944;-81
2023/04/05 04:47:42;;;;;;;;;;;-0.80;71.30;;;;;;4983240;28;19922;-82
2023/04/05 04:50:09;;;;;;;;;;;-0.80;71.30;;;;;;4971928;28;19950;-82
2023/04/05 04:52:35;;;;;;;;;;;-0.80;71.40;;;;;;4960794;28;20397;-82
2023/04/05 04:55:01;;;;;;;;;;;-0.80;71.30;;;;;;4963742;28;19922;-82
2023/04/05 04:57:27;;;;;;;;;;;-0.80;71.40;;;;;;4959059;28;20396;-81
2023/04/05 04:59:52;;;;;;;;;;;-0.80;71.40;;;;;;4964355;28;20030;-82
2023/04/05 05:02:22;;;;;;;;;;;-0.90;71.40;;;;;;4963114;28;19930;-82
2023/04/05 05:04:47;;;;;;;;;;;-0.90;71.40;;;;;;4981968;28;19993;-82
2023/04/05 05:07:12;;;;;;;;;;;-0.90;71.40;;;;;;4977384;28;20271;-82
2023/04/05 05:09:38;;;;;;;;;;;-0.90;71.40;;;;;;4962360;28;19961;-82
2023/04/05 05:12:04;;;;;;;;;;;-0.90;71.50;;;;;;4972882;28;19956;-81
2023/04/05 05:14:29;;;;;;;;;;;-0.90;71.50;;;;;;4969742;28;20041;-81
2023/04/05 05:16:57;;;;;;;;;;;-1.00;71.50;;;;;;4960655;28;19982;-81
2023/04/05 05:19:23;;;;;;;;;;;-1.00;71.50;;;;;;4963413;28;19921;-81
2023/04/05 05:21:49;;;;;;;;;;;-0.90;71.50;;;;;;4973991;28;19972;-81
2023/04/05 05:24:14;;;;;;;;;;;-1.00;71.50;;;;;;4961823;28;19929;-82
2023/04/05 05:26:40;;;;;;;;;;;-1.00;71.50;;;;;;4971812;28;19923;-81
2023/04/05 05:29:05;;;;;;;;;;;-1.00;71.50;;;;;;4974759;28;19973;-81
2023/04/05 05:31:32;;;;;;;;;;;-1.00;71.60;;;;;;4958436;28;19984;-83
2023/04/05 05:33:58;;;;;;;;;;;-1.00;71.60;;;;;;4963119;28;19933;-81
2023/04/05 05:36:24;;;;;;;;;;;-1.00;71.60;;;;;;4963611;28;19926;-81
2023/04/05 05:38:51;;;;;;;;;;;-1.00;71.60;;;;;;4958844;28;19930;-82
2023/04/05 05:41:16;;;;;;;;;;;-1.00;71.60;;;;;;4949278;28;19987;-81
2023/04/05 05:43:42;;;;;;;;;;;-1.00;71.70;;;;;;4976200;28;20008;-82
2023/04/05 05:46:08;;;;;;;;;;;-0.90;71.70;;;;;;4959996;28;19919;-80
2023/04/05 05:48:33;;;;;;;;;;;-0.90;71.70;;;;;;4958965;28;19960;-81
2023/04/05 05:51:01;;;;;;;;;;;-0.90;71.70;;;;;;4950146;28;19922;-82
2023/04/05 05:53:26;;;;;;;;;;;-0.90;71.70;;;;;;4960066;28;19925;-83
2023/04/05 05:55:52;;;;;;;;;;;-0.80;71.80;;;;;;4958832;28;19993;-83
2023/04/05 05:58:17;;;;;;;;;;;-0.80;71.80;;;;;;4958232;28;19918;-80
2023/04/05 06:00:43;;;;;;;;;;;-0.80;71.80;;;;;;4970598;28;19944;-82
2023/04/05 06:03:09;;;;;;;;;;;-0.80;71.80;;;;;;4957697;28;19930;-80
2023/04/05 06:05:35;;;;;;;;;;;-0.70;71.80;;;;;;4965703;28;20121;-81
2023/04/05 06:08:02;;;;;;;;;;;-0.70;71.80;;;;;;4962881;28;19956;-83
2023/04/05 06:10:28;;;;;;;;;;;-0.60;71.80;;;;;;4963270;28;19933;-82
2023/04/05 06:12:53;;;;;;;;;;;-0.60;71.80;;;;;;4975709;28;19922;-81
2023/04/05 06:15:19;;;;;;;;;;;-0.50;71.80;;;;;;4963787;28;19922;-81
2023/04/05 06:17:45;;;;;;;;;;;-0.50;71.80;;;;;;4951170;28;19926;-82
2023/04/05 06:20:10;;;;;;;;;;;-0.40;71.80;;;;;;4964054;28;20256;-82
2023/04/05 06:22:39;;;;;;;;;;;-0.40;71.80;;;;;;4958863;28;19922;-81
2023/04/05 06:25:04;;;;;;;;;;;-0.30;71.90;;;;;;4948837;28;20070;-79
2023/04/05 06:27:30;;;;;;;;;;;-0.20;71.90;;;;;;4972812;28;21180;-81
2023/04/05 06:29:58;;;;;;;;;;;-0.20;71.80;;;;;;4961119;28;19973;-80
2023/04/05 06:32:23;;;;;;;;;;;-0.10;71.80;;;;;;4956546;28;19955;-80
2023/04/05 06:34:49;;;;;;;;;;;0.00;71.80;;;;;;4966854;28;19922;-80
2023/04/05 06:37:14;;;;;;;;;;;0.10;71.80;;;;;;4968226;28;19933;-82
2023/04/05 06:39:40;;;;;;;;;;;0.20;71.80;;;;;;4966707;28;19928;-80
2023/04/05 06:42:07;;;;;;;;;;;0.30;71.70;;;;;;4960799;28;21743;-80
2023/04/05 06:44:33;;;;;;;;;;;0.40;71.60;;;;;;4955623;28;19926;-82
2023/04/05 06:46:58;;;;;;;;;;;0.50;71.60;;;;;;4961150;28;20389;-80
2023/04/05 06:49:23;;;;;;;;;;;0.70;71.60;;;;;;4972420;28;19927;-81
2023/04/05 06:51:49;;;;;;;;;;;0.70;71.60;;;;;;4955519;28;19950;-82
2023/04/05 06:54:15;;;;;;;;;;;0.90;71.60;;;;;;4967904;28;19922;-80
2023/04/05 06:56:40;;;;;;;;;;;1.00;71.60;;;;;;4956776;28;20360;-81
2023/04/05 06:59:05;;;;;;;;;;;1.10;71.40;;;;;;4970458;28;20408;-81
2023/04/05 07:01:31;;;;;;;;;;;1.20;71.40;;;;;;4961581;28;19949;-80
2023/04/05 07:03:57;;;;;;;;;;;1.40;71.50;;;;;;4967419;28;19923;-81
2023/04/05 07:06:22;;;;;;;;;;;1.50;71.40;;;;;;4965267;28;19929;-81
2023/04/05 07:08:48;;;;;;;;;;;1.60;71.30;;;;;;4960303;28;19922;-81
2023/04/05 07:11:14;;;;;;;;;;;1.80;71.20;;;;;;4960720;28;19926;-80
2023/04/05 07:13:39;;;;;;;;;;;1.90;71.20;;;;;;4955501;28;19956;-80
2023/04/05 07:16:05;;;;;;;;;;;2.10;71.10;;;;;;4960040;28;20474;-81
2023/04/05 07:18:30;;;;;;;;;;;2.20;71.00;;;;;;4970960;28;19922;-83
2023/04/05 07:20:59;;;;;;;;;;;2.40;70.90;;;;;;4978085;28;20420;-82
2023/04/05 07:23:25;;;;;;;;;;;2.50;70.80;;;;;;4975647;28;19926;-81
2023/04/05 07:25:50;;;;;;;;;;;2.60;70.80;;;;;;4976373;28;19929;-82
2023/04/05 07:28:16;;;;;;;;;;;2.80;70.60;;;;;;4974863;28;19953;-82
2023/04/05 07:30:41;;;;;;;;;;;2.90;70.50;;;;;;4980168;28;19921;-80
2023/04/05 07:33:07;;;;;;;;;;;3.00;70.50;;;;;;4988364;28;20494;-82
2023/04/05 07:35:32;;;;;;;;;;;3.20;70.40;;;;;;4978109;28;19922;-80
2023/04/05 07:37:58;;;;;;;;;;;3.40;70.40;;;;;;4978383;28;20016;-80
2023/04/05 07:40:23;;;;;;;;;;;3.50;70.30;;;;;;4973964;28;19941;-81
2023/04/05 07:42:49;;;;;;;;;;;3.70;70.20;;;;;;4989465;28;19980;-82
2023/04/05 07:45:15;;;;;;;;;;;3.90;70.10;;;;;;4985377;28;19922;-80
2023/04/05 07:47:40;;;;;;;;;;;4.00;70.00;;;;;;4973273;28;19933;-81
2023/04/05 07:50:06;;;;;;;;;;;4.20;69.90;;;;;;4960461;28;19926;-83
2023/04/05 07:52:31;;;;;;;;;;;4.30;69.80;;;;;;4960391;28;19922;-82
2023/04/05 07:54:57;;;;;;;;;;;4.50;69.70;;;;;;4953521;28;19937;-80
2023/04/05 07:57:22;;;;;;;;;;;4.60;69.40;;;;;;4955984;28;19922;-82
2023/04/05 07:59:49;;;;;;;;;;;4.80;69.50;;;;;;4954738;28;19923;-82
2023/04/05 08:02:15;;;;;;;;;;;4.90;69.40;;;;;;4968034;28;19926;-80
2023/04/05 08:04:40;;;;;;;;;;;5.10;69.40;;;;;;4968473;28;19957;-82
2023/04/05 08:07:06;;;;;;;;;;;5.20;69.20;;;;;;4963548;28;19927;-81
2023/04/05 08:09:31;;;;;;;;;;;5.40;69.10;;;;;;4972054;28;19929;-81
2023/04/05 08:11:58;;;;;;;;;;;5.60;69.00;;;;;;4965119;28;19929;-80
2023/04/05 08:14:23;;;;;;;;;;;5.70;68.90;;;;;;4965995;28;19926;-80
2023/04/05 08:16:50;;;;;;;;;;;6.00;68.80;;;;;;4955118;28;19929;-80
2023/04/05 08:19:16;;;;;;;;;;;6.20;68.70;;;;;;4955097;28;19923;-80
2023/04/05 08:21:41;;;;;;;;;;;6.40;68.70;;;;;;4970066;28;19926;-79
2023/04/05 08:24:07;;;;;;;;;;;6.60;68.40;;;;;;4953603;28;20393;-80
2023/04/05 08:26:32;;;;;;;;;;;6.80;68.30;;;;;;4955034;28;19923;-80
2023/04/05 08:28:57;;;;;;;;;;;7.00;68.20;;;;;;4982495;28;19925;-80
2023/04/05 08:31:23;;;;;;;;;;;7.20;68.00;;;;;;4967768;28;19982;-79
2023/04/05 08:33:48;;;;;;;;;;;7.30;67.80;;;;;;4979546;28;19929;-80
2023/04/05 08:36:14;;;;;;;;;;;7.50;67.70;;;;;;4964404;28;19933;-79
2023/04/05 08:38:39;;;;;;;;;;;7.70;67.70;;;;;;4978150;28;20581;-81
2023/04/05 08:41:06;;;;;;;;;;;7.90;67.50;;;;;;4951750;28;20471;-80
2023/04/05 08:43:31;;;;;;;;;;;8.10;67.30;;;;;;4963610;28;19922;-81
2023/04/05 08:45:57;;;;;;;;;;;8.30;67.20;;;;;;4961890;28;19922;-79
2023/04/05 08:48:22;;;;;;;;;;;8.40;66.90;;;;;;4975959;28;19929;-81
2023/04/05 08:50:48;;;;;;;;;;;8.60;66.70;;;;;;4949882;28;20428;-82
2023/04/05 08:53:14;;;;;;;;;;;8.70;66.80;;;;;;4961894;28;20005;-79
2023/04/05 08:55:40;;;;;;;;;;;8.80;66.60;;;;;;4963838;28;19954;-79
2023/04/05 08:58:06;;;;;;;;;;;9.00;66.60;;;;;;4962442;28;19922;-81
2023/04/05 09:00:32;;;;;;;;;;;9.20;66.40;;;;;;4963741;28;20113;-81
2023/04/05 09:02:57;;;;;;;;;;;9.40;66.30;;;;;;4962652;28;19989;-80
2023/04/05 09:05:23;;;;;;;;;;;9.70;66.30;;;;;;4963926;28;19923;-81
2023/04/05 09:07:48;;;;;;;;;;;9.90;66.10;;;;;;4962673;28;19922;-81
2023/04/05 09:10:14;;;;;;;;;;;10.10;65.90;;;;;;4973435;28;19990;-80
2023/04/05 09:12:40;;;;;;;;;;;10.30;65.70;;;;;;4963361;28;19933;-82
2023/04/05 09:15:05;;;;;;;;;;;10.50;65.50;;;;;;4962572;28;19922;-79
2023/04/05 09:17:31;;;;;;;;;;;10.70;65.30;;;;;;4971846;28;19922;-82
2023/04/05 09:19:56;;;;;;;;;;;10.80;65.10;;;;;;4963466;28;19922;-80
2023/04/05 09:22:22;;;;;;;;;;;10.90;65.00;;;;;;4965391;28;19936;-80
2023/04/05 09:24:47;;;;;;;;;;;11.10;65.00;;;;;;4962556;28;19924;-81
2023/04/05 09:27:13;;;;;;;;;;;11.30;65.70;;;;;;4960781;28;20364;-82
2023/04/05 09:29:45;;;;;;;;;;;11.60;64.70;;;;;;4962874;28;19929;-81
2023/04/05 09:32:10;;;;;;;;;;;11.80;64.60;;;;;;4960653;28;20653;-82
2023/04/05 09:34:36;;;;;;;;;;;12.00;64.30;;;;;;4962759;28;19958;-81
2023/04/05 09:37:02;;;;;;;;;;;12.10;64.10;;;;;;4983375;28;19936;-82
2023/04/05 09:39:28;;;;;;;;;;;12.30;63.90;;;;;;4989610;28;19922;-82
2023/04/05 09:42:03;;;;;;;;;;;12.40;63.70;;;;;;4979358;28;19930;-80
2023/04/05 09:44:36;;;;;;;;;;;12.50;63.60;;;;;;4979192;28;19937;-81
2023/04/05 09:47:15;;;;;;;;;;;12.60;63.60;;;;;;4998874;28;19930;-82
2023/04/05 09:49:40;;;;;;;;;;;12.70;63.50;;;;;;4996346;28;20032;-80
2023/04/05 09:52:16;;;;;;;;;;;12.90;63.40;;;;;;4993926;28;19956;-82
2023/04/05 09:54:42;;;;;;;;;;;13.00;63.20;;;;;;4970306;28;19946;-79
2023/04/05 09:57:07;;;;;;;;;;;13.20;63.20;;;;;;4975616;28;19984;-82
2023/04/05 09:59:33;;;;;;;;;;;13.30;63.00;;;;;;4960069;28;19922;-81
2023/04/05 10:01:58;;;;;;;;;;;13.50;62.90;;;;;;4950446;28;20488;-80
2023/04/05 10:04:23;;;;;;;;;;;13.70;62.80;;;;;;4963263;28;19922;-82
2023/04/05 10:06:49;;;;;;;;;;;13.90;62.70;;;;;;4959535;28;19918;-82
2023/04/05 10:09:16;;;;;;;;;;;14.20;62.50;;;;;;4967877;28;19968;-80
2023/04/05 10:11:42;;;;;;;;;;;14.40;62.40;;;;;;4965762;28;20480;-81
2023/04/05 10:14:08;;;;;;;;;;;14.50;62.10;;;;;;4962870;28;19922;-82
2023/04/05 10:16:36;;;;;;;;;;;14.70;61.80;;;;;;4979063;28;19936;-82
2023/04/05 10:19:02;;;;;;;;;;;14.80;61.70;;;;;;4980124;28;19929;-81
2023/04/05 10:21:28;;;;;;;;;;;14.90;61.60;;;;;;4994034;28;19948;-82
2023/04/05 10:24:31;;;;;;;;;;;15.10;61.50;;;;;;4981256;28;19928;-83
2023/04/05 10:27:05;;;;;;;;;;;15.30;61.50;;;;;;4970853;28;19922;-83
2023/04/05 10:29:48;;;;;;;;;;;15.50;61.30;;;;;;4959541;28;19922;-80
2023/04/05 10:32:17;;;;;;;;;;;15.70;61.20;;;;;;4973807;28;19926;-81
2023/04/05 10:34:50;;;;;;;;;;;16.00;61.00;;;;;;4955770;28;19929;-83
2023/04/05 10:37:47;;;;;;;;;;;16.10;60.70;;;;;;4945765;28;19968;-80
2023/04/05 10:40:12;;;;;;;;;;;16.10;60.50;;;;;;4966495;28;19947;-82
2023/04/05 10:42:41;;;;;;;;;;;16.20;60.50;;;;;;4947360;28;20358;-81
2023/04/05 10:45:10;;;;;;;;;;;16.20;60.50;;;;;;4935229;28;19970;-82
2023/04/05 10:47:37;;;;;;;;;;;16.30;60.40;;;;;;4945262;28;19944;-82
2023/04/05 10:50:03;;;;;;;;;;;16.40;60.30;;;;;;4958717;28;20436;-82
2023/04/05 10:52:28;;;;;;;;;;;16.40;60.10;;;;;;4957898;28;19927;-79
2023/04/05 10:54:55;;;;;;;;;;;16.50;60.20;;;;;;4957084;28;20231;-80
2023/04/05 10:57:21;;;;;;;;;;;16.60;60.20;;;;;;4953459;28;19922;-78
2023/04/05 10:59:46;;;;;;;;;;;16.80;60.10;;;;;;4971563;28;19918;-81
2023/04/05 11:02:12;;;;;;;;;;;17.00;60.00;;;;;;4960795;28;20172;-82
2023/04/05 11:04:38;;;;;;;;;;;17.20;59.80;;;;;;4976927;28;19921;-81
2023/04/05 11:07:14;;;;;;;;;;;17.30;59.70;;;;;;4960542;28;19945;-81
2023/04/05 11:09:49;;;;;;;;;;;17.50;59.50;;;;;;4968308;28;19954;-82
2023/04/05 11:12:14;;;;;;;;;;;17.80;59.50;;;;;;4981925;28;19927;-79
2023/04/05 11:14:40;;;;;;;;;;;17.90;59.30;;;;;;4988057;28;19926;-81
2023/04/05 11:17:22;;;;;;;;;;;18.10;59.10;;;;;;4974768;28;19926;-79
2023/04/05 11:19:48;;;;;;;;;;;18.20;59.00;;;;;;4989739;28;19930;-78
2023/04/05 11:22:23;;;;;;;;;;;18.30;58.80;;;;;;4961367;28;19938;-80
2023/04/05 11:24:50;;;;;;;;;;;18.30;58.70;;;;;;4964837;28;19923;-79
2023/04/05 11:27:15;;;;;;;;;;;18.30;58.70;;;;;;4959829;28;19926;-81
2023/04/05 11:29:44;;;;;;;;;;;18.50;58.80;;;;;;4958420;28;19929;-80
2023/04/05 11:32:10;;;;;;;;;;;18.60;58.70;;;;;;4970018;28;19977;-82
2023/04/05 11:34:36;;;;;;;;;;;18.70;58.70;;;;;;4966880;28;19934;-81
2023/04/05 11:37:02;;;;;;;;;;;18.80;58.60;;;;;;4956077;28;19997;-82
2023/04/05 11:39:27;;;;;;;;;;;18.90;58.40;;;;;;4960480;28;20492;-81
2023/04/05 11:41:54;;;;;;;;;;;18.90;58.30;;;;;;4952561;28;19938;-80
2023/04/05 11:44:19;;;;;;;;;;;19.00;58.40;;;;;;4984375;28;20016;-80
2023/04/05 11:46:45;;;;;;;;;;;19.10;58.30;;;;;;4984489;28;19960;-82
2023/04/05 11:49:11;;;;;;;;;;;19.20;58.20;;;;;;4987796;28;19922;-82
2023/04/05 11:51:36;;;;;;;;;;;19.30;58.30;;;;;;4975298;28;19922;-82
2023/04/05 11:54:02;;;;;;;;;;;19.30;58.10;;;;;;4997464;28;19922;-81
2023/04/05 11:56:27;;;;;;;;;;;19.40;58.10;;;;;;4975721;28;19957;-80
2023/04/05 11:58:57;;;;;;;;;;;19.50;58.00;;;;;;4978381;28;19960;-82
2023/04/05 12:01:22;;;;;;;;;;;19.60;58.00;;;;;;4987236;28;19926;-82
2023/04/05 12:03:51;;;;;;;;;;;19.70;57.90;;;;;;4964343;28;19961;-82
2023/04/05 12:06:20;;;;;;;;;;;19.90;57.80;;;;;;4958027;28;19922;-80
2023/04/05 12:08:55;;;;;;;;;;;19.80;57.40;;;;;;4962871;28;20405;-79
2023/04/05 12:11:32;;;;;;;;;;;19.70;57.60;;;;;;4971044;28;19921;-78
2023/04/05 12:13:58;;;;;;;;;;;19.70;57.70;;;;;;4982369;28;19932;-79
2023/04/05 12:16:24;;;;;;;;;;;19.70;57.80;;;;;;4953317;28;19933;-81
2023/04/05 12:18:53;;;;;;;;;;;19.80;57.50;;;;;;4962811;28;19922;-82
2023/04/05 12:21:18;;;;;;;;;;;19.70;57.60;;;;;;4967533;28;20672;-81
2023/04/05 12:23:44;;;;;;;;;;;19.60;57.70;;;;;;4961573;28;19927;-80
2023/04/05 12:26:09;;;;;;;;;;;19.50;57.70;;;;;;4953906;28;19922;-80
2023/04/05 12:28:53;;;;;;;;;;;19.50;57.60;;;;;;4971799;28;19927;-80
2023/04/05 12:31:34;;;;;;;;;;;19.30;57.60;;;;;;4964431;28;19968;-79
2023/04/05 12:33:59;;;;;;;;;;;19.20;57.90;;;;;;4963787;28;19972;-80
2023/04/05 12:36:26;;;;;;;;;;;19.30;58.10;;;;;;4950602;28;19966;-81
2023/04/05 12:38:53;;;;;;;;;;;19.30;58.10;;;;;;4961368;28;19922;-80
2023/04/05 12:41:25;;;;;;;;;;;19.40;57.90;;;;;;4960090;28;19929;-80
2023/04/05 12:43:57;;;;;;;;;;;19.30;57.80;;;;;;4956458;28;20189;-82
2023/04/05 12:46:36;;;;;;;;;;;19.40;57.90;;;;;;4961147;28;19926;-81
2023/04/05 12:49:02;;;;;;;;;;;19.50;57.90;;;;;;4974206;28;20004;-81
2023/04/05 12:51:27;;;;;;;;;;;19.70;57.80;;;;;;4978669;28;20316;-81
2023/04/05 12:53:55;;;;;;;;;;;19.70;57.60;;;;;;4987008;28;19941;-78
2023/04/05 12:56:20;;;;;;;;;;;19.80;57.50;;;;;;4988241;28;19933;-81
2023/04/05 12:58:47;;;;;;;;;;;19.90;57.40;;;;;;4979933;28;19922;-80
2023/04/05 13:01:12;;;;;;;;;;;19.90;57.40;;;;;;4983241;28;19930;-81
2023/04/05 13:03:38;;;;;;;;;;;19.80;57.40;;;;;;4986953;28;19933;-79
2023/04/05 13:06:03;;;;;;;;;;;19.90;57.40;;;;;;4961941;28;19973;-79
2023/04/05 13:08:29;;;;;;;;;;;19.90;57.40;;;;;;4983620;28;20624;-82
2023/04/05 13:10:54;;;;;;;;;;;20.00;57.30;;;;;;4983754;28;19969;-81
2023/04/05 13:13:20;;;;;;;;;;;20.10;57.30;;;;;;4969507;28;19961;-81
2023/04/05 13:15:45;;;;;;;;;;;20.10;57.20;;;;;;4979283;28;19926;-80
2023/04/05 13:18:13;;;;;;;;;;;20.10;57.20;;;;;;4984007;28;19922;-82
2023/04/05 13:20:39;;;;;;;;;;;20.20;57.20;;;;;;4983931;28;19921;-81
2023/04/05 13:23:09;;;;;;;;;;;20.30;57.20;;;;;;4977697;28;19976;-80
2023/04/05 13:25:35;;;;;;;;;;;20.40;57.10;;;;;;4980020;28;19937;-80
2023/04/05 13:28:01;;;;;;;;;;;20.50;57.00;;;;;;4980860;28;19993;-82
2023/04/05 13:30:26;;;;;;;;;;;20.50;56.90;;;;;;4979636;28;19953;-82
2023/04/05 13:32:52;;;;;;;;;;;20.50;56.80;;;;;;4968589;28;21203;-82
2023/04/05 13:35:17;;;;;;;;;;;20.60;56.90;;;;;;4983841;28;19922;-82
2023/04/05 13:37:43;;;;;;;;;;;20.70;56.80;;;;;;4997913;28;19948;-79
2023/04/05 13:40:08;;;;;;;;;;;20.70;57.40;;;;;;4995148;28;19926;-82
2023/04/05 13:42:34;;;;;;;;;;;20.80;56.70;;;;;;4984727;28;19933;-81
2023/04/05 13:44:59;;;;;;;;;;;20.90;56.70;;;;;;4986479;28;20464;-81
2023/04/05 13:47:25;;;;;;;;;;;21.00;56.60;;;;;;4983442;28;19925;-82
2023/04/05 13:49:50;;;;;;;;;;;21.00;56.50;;;;;;4984860;28;19922;-82
2023/04/05 13:52:16;;;;;;;;;;;21.10;56.50;;;;;;4984846;28;19918;-79
2023/04/05 13:54:42;;;;;;;;;;;21.20;56.50;;;;;;4992624;28;19945;-81
2023/04/05 13:57:08;;;;;;;;;;;21.30;56.40;;;;;;4972208;28;19953;-82
2023/04/05 13:59:33;;;;;;;;;;;21.30;56.30;;;;;;4996438;28;19922;-82
2023/04/05 14:01:59;;;;;;;;;;;21.40;56.20;;;;;;4993171;28;19933;-81
2023/04/05 14:04:24;;;;;;;;;;;21.60;56.20;;;;;;4975970;28;20524;-81
2023/04/05 14:06:50;;;;;;;;;;;21.50;55.90;;;;;;4967300;28;19950;-80
2023/04/05 14:09:15;;;;;;;;;;;21.50;56.70;;;;;;4977285;28;19937;-80
2023/04/05 14:11:41;;;;;;;;;;;21.50;56.10;;;;;;4974080;28;19929;-78
2023/04/05 14:14:06;;;;;;;;;;;21.40;56.10;;;;;;4977229;28;19943;-78
2023/04/05 14:16:32;;;;;;;;;;;21.40;56.10;;;;;;4965615;28;20371;-79
2023/04/05 14:18:57;;;;;;;;;;;21.30;56.20;;;;;;4974032;28;19922;-79
2023/04/05 14:21:23;;;;;;;;;;;21.30;56.20;;;;;;4975658;28;19926;-80